Time;durP1;ratioP1;P1;durP2;ratioP2;P2;SDS_P1;SDS_P2;PMS_P1;PMS_P2;Temp;Humidity;BMP_temperature;BMP_pressure;BME280_temperature;BME280_humidity;BME280_pressure;Samples;Min_cycle;Max_cycle;Signal;HPM_P1;HPM_P2
2022/02/04 00:01:13;;;;;;;;;;;;;;;2.91;100.00;98075.34;1704200;83;24657;-90
2022/02/04 00:26:15;;;;;;;;;;;;;;;;;;;;;
2022/02/04 00:27:59;;;;;;;;;;;;;;;2.82;100.00;98020.66;1671718;83;22607;-90
2022/02/04 00:30:31;;;;;;;;;;;;;;;2.79;100.00;98022.91;1689346;84;25987;-92
2022/02/04 00:32:57;;;;;;;;;;;;;;;2.84;100.00;98018.38;1684411;83;25064;-86
2022/02/04 00:35:33;;;;;;;;;;;;;;;2.86;100.00;98011.41;1690825;83;20533;-87
2022/02/04 00:38:08;;;;;;;;;;;;;;;2.89;100.00;98003.98;1691650;83;24796;-85
2022/02/04 00:40:37;;;;;;;;;;;;;;;2.84;100.00;97991.69;1688753;84;22060;-86
2022/02/04 00:43:04;;;;;;;;;;;;;;;2.85;100.00;97987.75;1686099;84;26120;-86
2022/02/04 00:45:53;;;;;;;;;;;;;;;2.87;100.00;97996.29;1689683;83;24571;-86
2022/02/04 00:51:59;;;;;;;;;;;;;;;2.92;100.00;97977.98;1693309;83;24749;-86
2022/02/04 00:53:32;;;;;;;;;;;;;;;2.98;100.00;97982.03;1693239;82;22025;-90
2022/02/04 00:56:06;;;;;;;;;;;;;;;2.97;100.00;97972.14;1692467;83;26097;-89
2022/02/04 01:26:46;;;;;;;;;;;;;;;2.92;100.00;97897.41;1674048;85;25128;-91
2022/02/04 01:29:13;;;;;;;;;;;;;;;2.89;100.00;97878.16;1673770;85;20278;-90
2022/02/04 01:31:39;;;;;;;;;;;;;;;2.87;100.00;97886.47;1671209;85;24831;-89
2022/02/04 01:34:05;;;;;;;;;;;;;;;2.82;100.00;97869.05;1669425;85;21964;-91
2022/02/04 01:36:31;;;;;;;;;;;;;;;2.82;100.00;97872.93;1662325;85;26032;-87
2022/02/04 01:38:57;;;;;;;;;;;;;;;2.82;100.00;97884.56;1676045;84;24372;-88
2022/02/04 01:41:23;;;;;;;;;;;;;;;2.84;100.00;97882.72;1639898;85;20223;-87
2022/02/04 01:43:50;;;;;;;;;;;;;;;2.85;100.00;97893.44;1638912;86;24726;-89
2022/02/04 01:46:16;;;;;;;;;;;;;;;2.85;100.00;97890.86;1642342;85;21988;-89
2022/02/04 01:48:42;;;;;;;;;;;;;;;2.82;100.00;97875.52;1670264;85;26025;-88
2022/02/04 01:53:57;;;;;;;;;;;;;;;2.84;100.00;97848.28;1606890;88;20310;-88
2022/02/04 01:56:23;;;;;;;;;;;;;;;2.88;100.00;97844.66;1605363;88;24835;-89
2022/02/04 01:58:51;;;;;;;;;;;;;;;2.89;100.00;97848.93;1568527;88;20276;-88
2022/02/04 02:01:18;;;;;;;;;;;;;;;2.88;100.00;97843.37;1620135;87;21152;-88
2022/02/04 02:03:45;;;;;;;;;;;;;;;2.92;100.00;97853.94;1624204;87;24543;-90
2022/02/04 02:06:13;;;;;;;;;;;;;;;2.92;100.00;97845.73;1590801;88;20230;-89
2022/02/04 02:08:42;;;;;;;;;;;;;;;2.94;100.00;97855.55;1559049;90;24845;-89
2022/02/04 02:11:09;;;;;;;;;;;;;;;2.97;100.00;97853.70;1616089;87;22030;-89
2022/02/04 02:13:50;;;;;;;;;;;;;;;3.03;100.00;97857.29;1618914;87;26069;-89
2022/02/04 02:16:25;;;;;;;;;;;;;;;3.07;100.00;97863.97;1614699;87;24515;-89
2022/02/04 02:35:32;;;;;;;;;;;;;;;3.24;100.00;97863.53;1603601;86;24825;-85
2022/02/04 02:41:22;;;;;;;;;;;;;;;3.26;100.00;97869.48;1621675;86;26039;-88
2022/02/04 02:43:22;;;;;;;;;;;;;;;3.27;100.00;97876.78;1624421;86;24459;-88
2022/02/04 02:46:09;;;;;;;;;;;;;;;3.27;100.00;97867.73;1624850;86;20227;-88
2022/02/04 02:54:28;;;;;;;;;;;;;;;3.28;100.00;97864.20;1603458;87;26655;-85
2022/02/04 02:59:32;;;;;;;;;;;;;;;3.27;100.00;97858.20;1600994;89;20246;-89
2022/02/04 03:01:56;;;;;;;;;;;;;;;3.27;100.00;97862.55;1628892;86;24779;-85
2022/02/04 03:04:22;;;;;;;;;;;;;;;3.22;100.00;97858.05;1630702;87;21983;-88
2022/02/04 03:06:50;;;;;;;;;;;;;;;3.20;100.00;97862.47;1620964;87;25693;-85
2022/02/04 03:09:17;;;;;;;;;;;;;;;3.21;100.00;97856.39;1628731;86;24442;-88
2022/02/04 03:11:43;;;;;;;;;;;;;;;3.19;100.00;97845.28;1629646;86;20243;-85
2022/02/04 03:14:12;;;;;;;;;;;;;;;3.21;100.00;97851.22;1627997;87;24741;-88
2022/02/04 03:16:38;;;;;;;;;;;;;;;3.19;100.00;97847.86;1628096;86;22071;-89
2022/02/04 03:19:06;;;;;;;;;;;;;;;3.17;100.00;97841.92;1631045;87;26020;-88
2022/02/04 03:21:40;;;;;;;;;;;;;;;3.20;100.00;97847.80;1629121;87;24703;-88
2022/02/04 03:24:08;;;;;;;;;;;;;;;3.23;100.00;97841.63;1626319;87;20266;-88
2022/02/04 03:26:45;;;;;;;;;;;;;;;3.21;100.00;97839.59;1632734;86;24821;-88
2022/02/04 03:29:02;;;;;;;;;;;;;;;3.18;100.00;97837.98;1629284;87;22235;-88
2022/02/04 03:31:45;;;;;;;;;;;;;;;3.19;100.00;97838.81;1630528;87;26125;-89
2022/02/04 03:34:18;;;;;;;;;;;;;;;3.20;100.00;97841.79;1631370;86;24474;-90
2022/02/04 03:36:45;;;;;;;;;;;;;;;3.20;100.00;97845.67;1630890;87;20225;-90
2022/02/04 03:39:12;;;;;;;;;;;;;;;3.19;100.00;97842.70;1630082;87;24852;-88
2022/02/04 03:41:38;;;;;;;;;;;;;;;3.18;100.00;97841.86;1630325;87;21982;-88
2022/02/04 03:44:10;;;;;;;;;;;;;;;3.18;100.00;97841.02;1630118;87;26004;-88
2022/02/04 03:46:36;;;;;;;;;;;;;;;3.17;100.00;97835.46;1630666;87;24465;-89
2022/02/04 03:49:02;;;;;;;;;;;;;;;3.18;100.00;97832.81;1630728;87;20895;-88
2022/02/04 03:51:28;;;;;;;;;;;;;;;3.23;100.00;97841.63;1630651;87;24834;-88
2022/02/04 03:53:59;;;;;;;;;;;;;;;3.24;100.00;97848.02;1667564;84;22004;-84
2022/02/04 03:56:22;;;;;;;;;;;;;;;3.25;100.00;97852.73;1678762;84;26149;-88
2022/02/04 03:58:48;;;;;;;;;;;;;;;3.26;100.00;97850.53;1653858;86;24719;-88
2022/02/04 04:01:14;;;;;;;;;;;;;;;3.26;100.00;97846.20;1672289;85;20230;-85
2022/02/04 04:03:41;;;;;;;;;;;;;;;3.31;100.00;97837.76;1677501;85;24812;-89
2022/02/04 04:06:08;;;;;;;;;;;;;;;3.31;100.00;97833.04;1654670;86;22045;-88
2022/02/04 04:08:34;;;;;;;;;;;;;;;3.25;100.00;97836.77;1673519;85;27300;-84
2022/02/04 04:11:00;;;;;;;;;;;;;;;3.24;100.00;97836.38;1649393;86;24411;-88
2022/02/04 04:13:27;;;;;;;;;;;;;;;3.23;100.00;97828.70;1647129;86;20151;-89
2022/02/04 04:15:53;;;;;;;;;;;;;;;3.23;100.00;97820.48;1644921;86;24806;-85
2022/02/04 04:18:19;;;;;;;;;;;;;;;3.24;100.00;97822.61;1651037;86;22088;-90
2022/02/04 04:20:46;;;;;;;;;;;;;;;3.20;100.00;97822.40;1654097;86;25994;-90
2022/02/04 04:23:13;;;;;;;;;;;;;;;3.19;100.00;97837.52;1655888;86;24542;-90
2022/02/04 04:25:39;;;;;;;;;;;;;;;3.17;100.00;97835.46;1655843;86;20258;-89
2022/02/04 04:28:06;;;;;;;;;;;;;;;3.20;100.00;97834.88;1655807;86;24922;-85
2022/02/04 04:30:32;;;;;;;;;;;;;;;3.20;100.00;97834.03;1654158;86;22085;-85
2022/02/04 04:32:58;;;;;;;;;;;;;;;3.22;100.00;97844.66;1654866;86;26002;-85
2022/02/04 04:35:25;;;;;;;;;;;;;;;3.19;100.00;97844.83;1654913;86;24442;-88
2022/02/04 04:40:40;;;;;;;;;;;;;;;3.13;100.00;97850.75;1653593;86;24819;-88
2022/02/04 05:30:12;;;;;;;;;;;;;;;3.00;100.00;97829.83;1643180;86;24505;-85
2022/02/04 05:32:42;;;;;;;;;;;;;;;3.03;100.00;97841.33;1656172;86;20167;-89
2022/02/04 05:35:09;;;;;;;;;;;;;;;2.98;100.00;97843.30;1597022;88;25560;-90
2022/02/04 05:37:41;;;;;;;;;;;;;;;2.98;100.00;97845.05;1648622;86;22678;-90
2022/02/04 05:40:19;;;;;;;;;;;;;;;2.99;100.00;97842.85;1642623;86;26154;-90
2022/02/04 05:42:56;;;;;;;;;;;;;;;3.02;100.00;97845.27;1597374;88;25304;-89
2022/02/04 05:45:20;;;;;;;;;;;;;;;3.08;100.00;97848.84;1596225;88;20260;-89
2022/02/04 05:47:55;;;;;;;;;;;;;;;3.12;100.00;97845.19;1641046;86;24863;-89
2022/02/04 05:50:29;;;;;;;;;;;;;;;3.14;100.00;97840.80;1649473;86;20473;-85
2022/02/04 05:53:05;;;;;;;;;;;;;;;3.16;100.00;97831.23;1648881;86;26667;-86
2022/02/04 05:55:46;;;;;;;;;;;;;;;3.16;100.00;97826.90;1644623;85;24452;-89
2022/02/04 05:58:04;;;;;;;;;;;;;;;3.14;100.00;97831.75;1637672;86;20171;-89
2022/02/04 06:03:28;;;;;;;;;;;;;;;3.12;100.00;97820.64;1597065;86;22094;-89
2022/02/04 06:11:25;;;;;;;;;;;;;;;3.16;100.00;97809.25;1646653;86;20210;-88
2022/02/04 06:24:36;;;;;;;;;;;;;;;3.27;100.00;97822.48;1576326;88;20257;-85
2022/02/04 06:27:03;;;;;;;;;;;;;;;3.25;100.00;97823.00;1625242;87;25573;-85
2022/02/04 06:29:30;;;;;;;;;;;;;;;3.28;100.00;97823.67;1624152;88;22181;-89
2022/02/04 06:31:57;;;;;;;;;;;;;;;3.31;100.00;97822.24;1666369;84;26197;-89
2022/02/04 06:34:23;;;;;;;;;;;;;;;3.32;100.00;97823.92;1660541;84;24559;-87
2022/02/04 06:36:50;;;;;;;;;;;;;;;3.32;100.00;97823.92;1655626;84;20241;-89
2022/02/04 06:39:17;;;;;;;;;;;;;;;3.30;100.00;97830.07;1637080;86;24839;-88
2022/02/04 06:41:58;;;;;;;;;;;;;;;3.28;100.00;97834.47;1636001;86;22027;-88
2022/02/04 06:44:24;;;;;;;;;;;;;;;3.28;100.00;97840.94;1641204;86;26119;-89
2022/02/04 06:46:50;;;;;;;;;;;;;;;3.28;100.00;97836.60;1642998;86;24423;-88
2022/02/04 06:49:16;;;;;;;;;;;;;;;3.29;100.00;97840.87;1612186;86;20198;-88
2022/02/04 06:51:42;;;;;;;;;;;;;;;3.32;100.00;97838.59;1643270;86;24835;-85
2022/02/04 06:54:09;;;;;;;;;;;;;;;3.33;100.00;97837.66;1665223;84;22047;-89
2022/02/04 06:56:36;;;;;;;;;;;;;;;3.36;100.00;97843.53;1667395;84;25998;-88
2022/02/04 06:59:04;;;;;;;;;;;;;;;3.42;100.00;97856.61;1666287;85;24417;-89
2022/02/04 07:01:32;;;;;;;;;;;;;;;3.47;100.00;97857.22;1645051;86;20281;-85
2022/02/04 07:04:03;;;;;;;;;;;;;;;3.52;100.00;97867.32;1643112;86;24906;-90
2022/02/04 07:06:31;;;;;;;;;;;;;;;3.56;100.00;97861.91;1634500;86;22013;-88
2022/02/04 07:09:18;;;;;;;;;;;;;;;3.58;100.00;97861.39;1600612;88;26058;-89
2022/02/04 07:14:26;;;;;;;;;;;;;;;3.65;100.00;97864.50;1633231;86;20183;-86
2022/02/04 07:17:11;;;;;;;;;;;;;;;3.70;100.00;97865.10;1647871;86;24848;-85
2022/02/04 07:22:06;;;;;;;;;;;;;;;3.79;100.00;97860.73;1639223;86;26092;-88
2022/02/04 07:24:32;;;;;;;;;;;;;;;3.84;100.00;97861.33;1607187;88;24485;-88
2022/02/04 07:26:58;;;;;;;;;;;;;;;3.89;100.00;97869.69;1598470;89;20252;-89
2022/02/04 07:29:24;;;;;;;;;;;;;;;3.92;100.00;97864.38;1648470;86;24889;-85
2022/02/04 07:31:52;;;;;;;;;;;;;;;3.97;100.00;97866.72;1621932;87;22141;-88
2022/02/04 07:34:40;;;;;;;;;;;;;;;4.02;100.00;97861.67;1598902;89;26157;-88
2022/02/04 07:42:23;;;;;;;;;;;;;;;4.10;100.00;97861.25;1599037;87;25180;-90
2022/02/04 07:44:49;;;;;;;;;;;;;;;4.10;100.00;97867.72;1657516;86;21954;-85
2022/02/04 07:47:16;;;;;;;;;;;;;;;4.13;100.00;97867.58;1596245;88;25972;-86
2022/02/04 07:49:43;;;;;;;;;;;;;;;4.19;100.00;97876.32;1643389;86;23882;-88
2022/02/04 07:52:09;;;;;;;;;;;;;;;4.21;100.00;97871.88;1632402;86;20279;-88
2022/02/04 07:54:35;;;;;;;;;;;;;;;4.28;100.00;97876.27;1636006;86;20237;-88
2022/02/04 07:57:03;;;;;;;;;;;;;;;4.33;100.00;97881.59;1641672;86;22070;-88
2022/02/04 07:59:32;;;;;;;;;;;;;;;4.42;100.00;97879.78;1643297;86;26115;-88
2022/02/04 08:01:58;;;;;;;;;;;;;;;4.47;100.00;97884.75;1638038;86;20917;-88
2022/02/04 08:04:28;;;;;;;;;;;;;;;4.52;100.00;97883.58;1628967;86;20261;-88
2022/02/04 08:06:57;;;;;;;;;;;;;;;4.58;100.00;97883.70;1599557;88;24831;-88
2022/02/04 08:14:55;;;;;;;;;;;;;;;4.58;100.00;97892.28;1623058;86;24448;-88
2022/02/04 08:17:48;;;;;;;;;;;;;;;4.58;100.00;97891.48;1642595;86;20192;-89
2022/02/04 08:25:27;;;;;;;;;;;;;;;4.60;100.00;97891.75;1640664;86;26059;-86
2022/02/04 08:33:05;;;;;;;;;;;;;;;4.69;100.00;97890.40;1603945;86;25397;-88
2022/02/04 08:35:36;;;;;;;;;;;;;;;4.71;100.00;97896.34;1626075;87;22027;-88
2022/02/04 08:38:13;;;;;;;;;;;;;;;4.72;100.00;97890.25;1627360;87;26738;-85
2022/02/04 08:56:03;;;;;;;;;;;;;;;4.80;100.00;97887.25;1630846;87;20332;-90
2022/02/04 08:58:45;;;;;;;;;;;;;;;4.81;100.00;97888.44;1631128;87;24936;-89
2022/02/04 09:01:12;;;;;;;;;;;;;;;4.86;100.00;97892.06;1628277;87;22013;-89
2022/02/04 09:04:30;;;;;;;;;;;;;;;4.90;100.00;97889.24;1628977;86;27007;-89
2022/02/04 09:06:08;;;;;;;;;;;;;;;4.97;100.00;97894.44;1617036;87;23783;-89
2022/02/04 09:08:42;;;;;;;;;;;;;;;5.01;100.00;97893.38;1630347;85;20248;-89
2022/02/04 09:11:13;;;;;;;;;;;;;;;5.03;100.00;97890.21;1630477;87;25390;-89
2022/02/04 09:19:15;;;;;;;;;;;;;;;5.14;100.00;97900.44;1630826;87;25206;-89
2022/02/04 09:24:15;;;;;;;;;;;;;;;5.25;100.00;97910.58;1630682;87;25526;-86
2022/02/04 09:26:43;;;;;;;;;;;;;;;5.33;100.00;97903.21;1617431;88;20169;-86
2022/02/04 09:29:09;;;;;;;;;;;;;;;5.40;100.00;97899.31;1631140;87;26048;-88
2022/02/04 09:31:36;;;;;;;;;;;;;;;5.45;100.00;97896.48;1618410;88;24462;-88
2022/02/04 09:34:03;;;;;;;;;;;;;;;5.43;100.00;97895.73;1630386;87;20452;-86
2022/02/04 09:36:29;;;;;;;;;;;;;;;5.39;100.00;97889.05;1629913;87;24846;-88
2022/02/04 09:38:58;;;;;;;;;;;;;;;5.45;100.00;97880.42;1630093;87;21920;-85
2022/02/04 09:41:25;;;;;;;;;;;;;;;5.53;100.00;97883.88;1628993;87;26919;-89
2022/02/04 09:43:51;;;;;;;;;;;;;;;5.59;100.00;97877.50;1629518;87;25163;-88
2022/02/04 09:46:23;;;;;;;;;;;;;;;5.58;100.00;97873.23;1628722;87;20221;-89
2022/02/04 09:48:51;;;;;;;;;;;;;;;5.56;100.00;97881.13;1633332;86;25000;-85
2022/02/04 09:51:18;;;;;;;;;;;;;;;5.55;100.00;97875.56;1628049;86;22508;-88
2022/02/04 10:10:38;;;;;;;;;;;;;;;5.66;100.00;97877.52;1534393;91;25326;-88
2022/02/04 10:13:09;;;;;;;;;;;;;;;5.71;100.00;97874.19;1571337;89;20382;-89
2022/02/04 10:17:59;;;;;;;;;;;;;;;5.79;100.00;97877.98;1598934;89;22879;-89
2022/02/04 10:20:25;;;;;;;;;;;;;;;5.83;100.00;97870.88;1616956;87;25509;-89
2022/02/04 10:22:51;;;;;;;;;;;;;;;5.85;100.00;97869.00;1608233;88;25224;-89
2022/02/04 10:25:18;;;;;;;;;;;;;;;5.86;100.00;97862.42;1639957;86;20521;-86
2022/02/04 10:27:46;;;;;;;;;;;;;;;5.82;100.00;97854.92;1599150;88;24726;-86
2022/02/04 10:30:14;;;;;;;;;;;;;;;5.81;100.00;97851.48;1573647;89;22063;-90
2022/02/04 10:32:47;;;;;;;;;;;;;;;5.83;100.00;97843.61;1633340;86;25981;-89
2022/02/04 10:35:21;;;;;;;;;;;;;;;5.85;100.00;97846.92;1612959;88;24565;-86
2022/02/04 10:38:31;;;;;;;;;;;;;;;5.91;100.00;97834.91;1612130;88;20366;-86
2022/02/04 10:43:20;;;;;;;;;;;;;;;6.04;100.00;97836.30;1613071;88;22241;-85
2022/02/04 10:56:24;;;;;;;;;;;;;;;6.23;100.00;97845.92;1662279;83;22190;-89
2022/02/04 11:02:01;;;;;;;;;;;;;;;6.24;100.00;97838.04;1641201;86;24494;-89
2022/02/04 11:04:12;;;;;;;;;;;;;;;6.24;100.00;97838.04;1633568;86;20482;-89
2022/02/04 11:06:53;;;;;;;;;;;;;;;6.27;100.00;97837.03;1636406;86;24889;-89
2022/02/04 11:09:24;;;;;;;;;;;;;;;6.33;100.00;97834.52;1639884;86;22015;-88
2022/02/04 11:11:54;;;;;;;;;;;;;;;6.38;100.00;97838.50;1605892;87;26818;-85
2022/02/04 11:36:14;;;;;;;;;;;;;;;6.46;100.00;97836.23;1630665;86;22197;-88
2022/02/04 11:52:35;;;;;;;;;;;;;;;5.95;100.00;97826.45;1597374;88;26273;-88
2022/02/04 11:55:13;;;;;;;;;;;;;;;5.92;100.00;97824.90;1597990;88;24471;-87
2022/02/04 11:57:53;;;;;;;;;;;;;;;5.91;100.00;97821.92;1575878;89;20511;-87
2022/02/04 12:00:24;;;;;;;;;;;;;;;5.91;100.00;97831.02;1597984;88;24667;-86
2022/02/04 12:02:53;;;;;;;;;;;;;;;5.87;100.00;97826.48;1641487;86;23837;-85
2022/02/04 12:05:20;;;;;;;;;;;;;;;5.85;100.00;97830.89;1610365;88;25991;-87
2022/02/04 12:08:02;;;;;;;;;;;;;;;5.86;100.00;97823.47;1606829;88;24616;-87
2022/02/04 12:10:29;;;;;;;;;;;;;;;5.88;100.00;97827.31;1612567;88;20221;-88
2022/02/04 12:13:00;;;;;;;;;;;;;;;5.88;100.00;97829.91;1619958;88;24815;-88
2022/02/04 12:15:30;;;;;;;;;;;;;;;5.84;100.00;97821.42;1642081;86;21966;-88
2022/02/04 12:18:04;;;;;;;;;;;;;;;5.83;100.00;97828.87;1606733;88;26098;-88
2022/02/04 12:20:49;;;;;;;;;;;;;;;5.80;100.00;97828.20;1634437;86;24609;-85
2022/02/04 12:23:38;;;;;;;;;;;;;;;5.81;100.00;97832.47;1644032;86;20170;-89
2022/02/04 12:26:16;;;;;;;;;;;;;;;5.80;100.00;97824.30;1513879;92;25503;-87
2022/02/04 12:28:43;;;;;;;;;;;;;;;5.80;100.00;97815.22;1563469;89;22105;-83
2022/02/04 12:31:47;;;;;;;;;;;;;;;5.81;100.00;97815.59;1581151;89;26067;-88
2022/02/04 12:34:15;;;;;;;;;;;;;;;5.81;100.00;97812.53;1579953;89;24468;-89
2022/02/04 12:36:43;;;;;;;;;;;;;;;5.84;100.00;97817.53;1581857;90;20331;-89
2022/02/04 12:39:16;;;;;;;;;;;;;;;5.85;100.00;97814.47;1580095;90;25618;-89
2022/02/04 12:41:58;;;;;;;;;;;;;;;5.88;100.00;97820.83;1606415;88;21397;-89
2022/02/04 12:44:26;;;;;;;;;;;;;;;5.91;100.00;97814.59;1578806;89;26000;-89
2022/02/04 12:46:54;;;;;;;;;;;;;;;5.95;100.00;97812.17;1582983;89;25514;-90
2022/02/04 12:49:21;;;;;;;;;;;;;;;5.99;100.00;97808.02;1643990;86;20604;-88
2022/02/04 12:52:00;;;;;;;;;;;;;;;6.04;100.00;97809.88;1616700;87;24466;-85
2022/02/04 12:54:45;;;;;;;;;;;;;;;6.09;100.00;97806.98;1649801;86;22212;-89
2022/02/04 12:59:59;;;;;;;;;;;;;;;6.14;100.00;97801.04;1662151;84;24490;-89
2022/02/04 13:02:37;;;;;;;;;;;;;;;6.15;100.00;97802.71;1660160;84;20331;-89
2022/02/04 13:07:46;;;;;;;;;;;;;;;6.09;100.00;97799.19;1640918;86;22223;-88
2022/02/04 13:10:10;;;;;;;;;;;;;;;6.07;100.00;97794.55;1603133;87;23357;-89
2022/02/04 13:12:49;;;;;;;;;;;;;;;6.05;100.00;97794.66;1604201;87;24483;-89
2022/02/04 13:15:19;;;;;;;;;;;;;;;6.01;100.00;97790.56;1640455;86;20291;-89
2022/02/04 13:17:46;;;;;;;;;;;;;;;5.99;100.00;97788.55;1637427;86;24924;-91
2022/02/04 13:20:13;;;;;;;;;;;;;;;5.96;100.00;97787.42;1605444;87;22108;-84
2022/02/04 13:22:40;;;;;;;;;;;;;;;5.93;100.00;97778.99;1666293;84;26024;-89
2022/02/04 13:25:12;;;;;;;;;;;;;;;5.90;100.00;97777.41;1636273;86;24560;-88
2022/02/04 13:27:40;;;;;;;;;;;;;;;5.92;100.00;97784.64;1633881;86;20457;-85
2022/02/04 13:30:23;;;;;;;;;;;;;;;5.89;100.00;97770.56;1633920;86;25471;-88
2022/02/04 13:32:56;;;;;;;;;;;;;;;5.90;100.00;97777.41;1655309;84;21960;-90
2022/02/04 13:35:36;;;;;;;;;;;;;;;5.93;100.00;97770.74;1665044;84;25988;-90
2022/02/04 13:38:05;;;;;;;;;;;;;;;5.95;100.00;97762.38;1659752;84;24836;-90
2022/02/04 13:40:59;;;;;;;;;;;;;;;5.92;100.00;97766.47;1664419;84;20311;-89
2022/02/04 13:43:23;;;;;;;;;;;;;;;5.89;100.00;97773.16;1656231;84;24847;-88
2022/02/04 13:45:58;;;;;;;;;;;;;;;5.87;100.00;97769.35;1650669;84;22034;-88
2022/02/04 13:48:34;;;;;;;;;;;;;;;5.87;100.00;97763.33;1664626;84;26022;-88
2022/02/04 13:51:05;;;;;;;;;;;;;;;5.85;100.00;97771.17;1628815;86;24625;-85
2022/02/04 13:53:35;;;;;;;;;;;;;;;5.86;100.00;97768.95;1632899;86;20226;-85
2022/02/04 13:56:13;;;;;;;;;;;;;;;5.85;100.00;97762.54;1625265;87;24880;-88
2022/02/04 13:58:41;;;;;;;;;;;;;;;5.82;100.00;97762.28;1656433;84;22647;-88
2022/02/04 14:01:14;;;;;;;;;;;;;;;5.83;100.00;97763.13;1643589;85;26005;-87
2022/02/04 14:03:40;;;;;;;;;;;;;;;5.83;100.00;97766.55;1649564;85;24491;-88
2022/02/04 14:06:18;;;;;;;;;;;;;;;5.81;100.00;97764.97;1609020;85;269093;-88
2022/02/04 14:11:32;;;;;;;;;;;;;;;5.79;100.00;97765.52;1658653;84;22056;-89
2022/02/04 14:14:00;;;;;;;;;;;;;;;5.79;100.00;97765.05;1672969;84;26057;-88
2022/02/04 14:16:36;;;;;;;;;;;;;;;5.79;100.00;97752.53;1674721;84;24594;-90
2022/02/04 14:19:03;;;;;;;;;;;;;;;5.78;100.00;97766.46;1632157;84;20366;-88
2022/02/04 14:21:30;;;;;;;;;;;;;;;5.78;100.00;97766.46;1670235;84;25802;-89
2022/02/04 14:24:09;;;;;;;;;;;;;;;5.78;100.00;97772.95;1666325;84;21965;-90
2022/02/04 14:26:39;;;;;;;;;;;;;;;5.74;100.00;97762.36;1650322;84;26680;-90
2022/02/04 14:32:02;;;;;;;;;;;;;;;5.70;100.00;97769.98;1604591;88;20221;-89
2022/02/04 14:34:53;;;;;;;;;;;;;;;5.68;100.00;97770.52;1667524;84;25497;-90
2022/02/04 14:53:44;;;;;;;;;;;;;;;5.62;100.00;97789.09;1631431;86;26041;-85
2022/02/04 15:02:22;;;;;;;;;;;;;;;5.56;100.00;97784.27;1645936;86;24936;-90
2022/02/04 15:04:51;;;;;;;;;;;;;;;5.57;100.00;97782.85;1662726;84;22084;-90
2022/02/04 15:07:19;;;;;;;;;;;;;;;5.56;100.00;97776.48;1644685;86;26088;-90
2022/02/04 15:09:56;;;;;;;;;;;;;;;5.54;100.00;97780.91;1649479;86;24410;-90
2022/02/04 15:12:23;;;;;;;;;;;;;;;5.51;100.00;97766.34;1605388;88;20556;-90
2022/02/04 15:14:49;;;;;;;;;;;;;;;5.50;100.00;97768.59;1604114;88;24428;-91
2022/02/04 15:17:15;;;;;;;;;;;;;;;5.48;100.00;97764.79;1650028;86;22765;-88
2022/02/04 15:19:43;;;;;;;;;;;;;;;5.49;100.00;97760.44;1600594;88;25947;-88
2022/02/04 15:22:10;;;;;;;;;;;;;;;5.48;100.00;97766.08;1602845;88;24581;-88
2022/02/04 15:24:36;;;;;;;;;;;;;;;5.48;100.00;97756.16;1608071;88;20221;-87
2022/02/04 15:27:08;;;;;;;;;;;;;;;5.46;100.00;97765.79;1609286;86;24776;-88
2022/02/04 15:29:39;;;;;;;;;;;;;;;5.46;100.00;97764.49;1598641;89;22084;-89
2022/02/04 15:32:04;;;;;;;;;;;;;;;5.48;100.00;97766.08;1606391;88;26714;-88
2022/02/04 15:34:31;;;;;;;;;;;;;;;5.43;100.00;97759.04;1630931;86;24492;-88
2022/02/04 15:36:57;;;;;;;;;;;;;;;5.47;100.00;97768.30;1600178;88;20215;-88
2022/02/04 15:39:24;;;;;;;;;;;;;;;5.47;100.00;97770.06;1625494;86;24731;-88
2022/02/04 15:41:52;;;;;;;;;;;;;;;5.50;100.00;97769.89;1669508;84;21377;-88
2022/02/04 15:44:37;;;;;;;;;;;;;;;5.50;100.00;97765.16;1628983;86;26022;-88
2022/02/04 15:55:22;;;;;;;;;;;;;;;5.57;100.00;97767.73;1610471;88;22098;-89
2022/02/04 16:00:37;;;;;;;;;;;;;;;5.61;100.00;97771.38;1613020;87;24753;-89
2022/02/04 16:02:45;;;;;;;;;;;;;;;5.59;100.00;97765.90;1637915;85;20227;-89
2022/02/04 16:04:59;;;;;;;;;;;;;;;5.53;100.00;97767.10;1627789;86;24750;-85
2022/02/04 16:07:27;;;;;;;;;;;;;;;5.48;100.00;97758.77;1603247;88;21815;-85
2022/02/04 16:10:03;;;;;;;;;;;;;;;5.43;100.00;97759.04;1595129;89;26203;-85
2022/02/04 16:12:49;;;;;;;;;;;;;;;5.35;100.00;97757.81;1603585;88;25286;-85
2022/02/04 16:15:20;;;;;;;;;;;;;;;5.29;100.00;97763.39;1604048;88;20302;-85
2022/02/04 16:17:38;;;;;;;;;;;;;;;5.25;100.00;97756.70;1595802;88;24834;-85
2022/02/04 16:25:44;;;;;;;;;;;;;;;5.22;100.00;97746.52;1631386;86;25203;-90
2022/02/04 16:30:52;;;;;;;;;;;;;;;5.14;100.00;97748.25;1595077;88;24780;-89
2022/02/04 16:33:22;;;;;;;;;;;;;;;5.15;100.00;97740.85;1635797;86;21966;-89
2022/02/04 16:35:46;;;;;;;;;;;;;;;5.12;100.00;97736.31;1623220;86;26026;-89
2022/02/04 16:38:20;;;;;;;;;;;;;;;5.10;100.00;97746.77;1589225;90;24607;-88
2022/02/04 16:40:56;;;;;;;;;;;;;;;5.10;100.00;97744.64;1595900;90;20183;-89
2022/02/04 16:43:20;;;;;;;;;;;;;;;5.07;100.00;97741.78;1663776;85;25473;-89
2022/02/04 16:45:55;;;;;;;;;;;;;;;5.06;100.00;97738.81;1668181;84;21938;-88
2022/02/04 16:48:21;;;;;;;;;;;;;;;5.05;100.00;97741.86;1658762;85;26898;-89
2022/02/04 16:50:49;;;;;;;;;;;;;;;5.02;100.00;97740.73;1625014;87;24412;-89
2022/02/04 16:53:24;;;;;;;;;;;;;;;5.03;100.00;97741.56;1592212;89;20520;-89
2022/02/04 16:55:51;;;;;;;;;;;;;;;5.00;100.00;97741.76;1665059;85;25509;-90
2022/02/04 16:58:22;;;;;;;;;;;;;;;5.00;100.00;97737.87;1626840;86;21978;-88
2022/02/04 17:00:48;;;;;;;;;;;;;;;5.02;100.00;97742.02;1615276;87;26304;-89
2022/02/04 17:03:14;;;;;;;;;;;;;;;5.03;100.00;97740.27;1613849;88;24525;-88
2022/02/04 17:08:35;;;;;;;;;;;;;;;5.03;100.00;97739.81;1583077;89;25412;-89
2022/02/04 17:11:02;;;;;;;;;;;;;;;5.07;100.00;97731.41;1642329;86;22125;-84
2022/02/04 17:13:31;;;;;;;;;;;;;;;5.06;100.00;97731.03;1631687;86;26912;-84
2022/02/04 17:15:57;;;;;;;;;;;;;;;5.04;100.00;97727.22;1634413;86;24501;-88
2022/02/04 17:18:23;;;;;;;;;;;;;;;4.99;100.00;97719.34;1608081;88;20307;-88
2022/02/04 17:20:49;;;;;;;;;;;;;;;4.98;100.00;97722.39;1639928;86;44332;-84
2022/02/04 17:23:22;;;;;;;;;;;;;;;5.00;100.00;97722.31;1611591;88;22046;-85
2022/02/04 17:25:44;;;;;;;;;;;;;;;5.02;100.00;97721.28;1612365;88;26024;-89
2022/02/04 17:28:13;;;;;;;;;;;;;;;5.05;100.00;97716.39;1622219;88;25291;-89
2022/02/04 17:30:45;;;;;;;;;;;;;;;5.05;100.00;97718.52;1647464;86;20225;-88
2022/02/04 17:33:11;;;;;;;;;;;;;;;5.05;100.00;97715.93;1622960;88;24746;-87
2022/02/04 17:35:38;;;;;;;;;;;;;;;5.01;100.00;97717.50;1641074;86;21918;-87
2022/02/04 17:38:04;;;;;;;;;;;;;;;5.01;100.00;97718.80;1640129;86;26007;-88
2022/02/04 17:40:30;;;;;;;;;;;;;;;5.02;100.00;97717.84;1640658;86;24479;-85
2022/02/04 17:42:58;;;;;;;;;;;;;;;5.01;100.00;97721.39;1650313;86;20249;-87
2022/02/04 17:45:30;;;;;;;;;;;;;;;4.98;100.00;97714.61;1646952;86;24995;-89
2022/02/04 17:48:09;;;;;;;;;;;;;;;4.95;100.00;97710.08;1642381;86;22172;-87
2022/02/04 17:50:35;;;;;;;;;;;;;;;4.91;100.00;97705.52;1644195;86;25997;-88
2022/02/04 17:53:11;;;;;;;;;;;;;;;4.92;100.00;97708.95;1642863;86;24483;-88
2022/02/04 17:55:40;;;;;;;;;;;;;;;4.88;100.00;97707.01;1635003;86;20208;-88
2022/02/04 18:05:14;;;;;;;;;;;;;;;4.84;100.00;97705.53;1631356;87;26734;-84
2022/02/04 18:06:12;;;;;;;;;;;;;;;4.85;100.00;97706.37;1596220;88;24534;-84
2022/02/04 18:08:34;;;;;;;;;;;;;;;4.85;100.00;97705.91;1571767;90;20271;-88
2022/02/04 18:11:03;;;;;;;;;;;;;;;4.85;100.00;97696.00;1567089;90;24736;-88
2022/02/04 18:13:28;;;;;;;;;;;;;;;4.82;100.00;97701.34;1600558;88;22013;-84
2022/02/04 18:15:55;;;;;;;;;;;;;;;4.81;100.00;97698.38;1555844;90;26052;-88
2022/02/04 18:18:27;;;;;;;;;;;;;;;4.80;100.00;97698.03;1596029;88;24513;-88
2022/02/04 18:20:53;;;;;;;;;;;;;;;4.79;100.00;97692.00;1600450;88;20263;-87
2022/02/04 18:23:26;;;;;;;;;;;;;;;4.79;100.00;97692.46;1565799;91;25642;-89
2022/02/04 18:25:52;;;;;;;;;;;;;;;4.80;100.00;97692.84;1595231;88;21948;-87
2022/02/04 18:28:24;;;;;;;;;;;;;;;4.80;100.00;97694.94;1596467;88;21073;-87
2022/02/04 18:30:54;;;;;;;;;;;;;;;4.80;100.00;97691.55;1628319;86;25130;-87
2022/02/04 18:33:20;;;;;;;;;;;;;;;4.81;100.00;97681.52;1630323;86;20297;-87
2022/02/04 18:35:57;;;;;;;;;;;;;;;4.80;100.00;97675.99;1594639;88;25573;-88